sensor_id;sensor_type;location;lat;lon;timestamp;temperature;humidity
16532;DHT22;66872;63.142;14.482;2023-10-09T00:00:57;14.50;43.30
16532;DHT22;66872;63.142;14.482;2023-10-09T00:03:38;14.50;43.30
16532;DHT22;66872;63.142;14.482;2023-10-09T00:06:04;14.50;43.30
16532;DHT22;66872;63.142;14.482;2023-10-09T00:08:30;14.60;43.30
16532;DHT22;66872;63.142;14.482;2023-10-09T00:10:58;14.60;43.20
16532;DHT22;66872;63.142;14.482;2023-10-09T00:13:41;14.50;43.20
16532;DHT22;66872;63.142;14.482;2023-10-09T00:16:21;14.50;43.20
16532;DHT22;66872;63.142;14.482;2023-10-09T00:19:06;14.50;43.20
16532;DHT22;66872;63.142;14.482;2023-10-09T00:21:47;14.50;43.20
16532;DHT22;66872;63.142;14.482;2023-10-09T00:24:13;14.50;43.30
16532;DHT22;66872;63.142;14.482;2023-10-09T00:26:40;14.50;43.30
16532;DHT22;66872;63.142;14.482;2023-10-09T00:29:14;14.50;43.30
16532;DHT22;66872;63.142;14.482;2023-10-09T00:31:42;14.50;43.30
16532;DHT22;66872;63.142;14.482;2023-10-09T00:34:16;14.50;43.20
16532;DHT22;66872;63.142;14.482;2023-10-09T00:36:46;14.60;43.30
16532;DHT22;66872;63.142;14.482;2023-10-09T00:39:21;14.60;43.30
16532;DHT22;66872;63.142;14.482;2023-10-09T00:42:09;14.60;43.30
16532;DHT22;66872;63.142;14.482;2023-10-09T00:44:38;14.60;43.30
16532;DHT22;66872;63.142;14.482;2023-10-09T00:47:09;14.60;43.30
16532;DHT22;66872;63.142;14.482;2023-10-09T00:49:57;14.60;43.30
16532;DHT22;66872;63.142;14.482;2023-10-09T00:52:31;14.50;43.20
16532;DHT22;66872;63.142;14.482;2023-10-09T00:55:03;14.50;43.20
16532;DHT22;66872;63.142;14.482;2023-10-09T00:57:55;14.60;43.30
16532;DHT22;66872;63.142;14.482;2023-10-09T01:00:31;14.60;43.30
16532;DHT22;66872;63.142;14.482;2023-10-09T01:03:14;14.50;43.20
16532;DHT22;66872;63.142;14.482;2023-10-09T01:05:44;14.50;43.30
16532;DHT22;66872;63.142;14.482;2023-10-09T01:08:29;14.50;43.30
16532;DHT22;66872;63.142;14.482;2023-10-09T01:11:08;14.50;43.30
16532;DHT22;66872;63.142;14.482;2023-10-09T01:13:36;14.50;43.30
16532;DHT22;66872;63.142;14.482;2023-10-09T01:16:12;14.60;43.40
16532;DHT22;66872;63.142;14.482;2023-10-09T01:18:42;14.60;43.30
16532;DHT22;66872;63.142;14.482;2023-10-09T01:21:11;14.60;43.30
16532;DHT22;66872;63.142;14.482;2023-10-09T01:23:46;14.60;43.30
16532;DHT22;66872;63.142;14.482;2023-10-09T01:26:31;14.50;43.20
16532;DHT22;66872;63.142;14.482;2023-10-09T01:29:18;14.50;43.30
16532;DHT22;66872;63.142;14.482;2023-10-09T01:31:51;14.50;43.30
16532;DHT22;66872;63.142;14.482;2023-10-09T01:34:29;14.50;43.30
16532;DHT22;66872;63.142;14.482;2023-10-09T01:37:05;14.50;43.30
16532;DHT22;66872;63.142;14.482;2023-10-09T01:39:38;14.50;43.30
16532;DHT22;66872;63.142;14.482;2023-10-09T01:42:08;14.50;43.30
16532;DHT22;66872;63.142;14.482;2023-10-09T01:44:35;14.50;43.40
16532;DHT22;66872;63.142;14.482;2023-10-09T01:47:04;14.50;43.50
16532;DHT22;66872;63.142;14.482;2023-10-09T01:49:36;14.50;43.50
16532;DHT22;66872;63.142;14.482;2023-10-09T01:52:03;14.50;43.50
16532;DHT22;66872;63.142;14.482;2023-10-09T01:54:36;14.50;43.40
16532;DHT22;66872;63.142;14.482;2023-10-09T01:57:07;14.50;43.50
16532;DHT22;66872;63.142;14.482;2023-10-09T01:59:47;14.50;43.50
16532;DHT22;66872;63.142;14.482;2023-10-09T02:02:16;14.50;43.60
16532;DHT22;66872;63.142;14.482;2023-10-09T02:05:03;14.50;43.50
16532;DHT22;66872;63.142;14.482;2023-10-09T02:07:38;14.50;43.50
16532;DHT22;66872;63.142;14.482;2023-10-09T02:10:11;14.40;43.50
16532;DHT22;66872;63.142;14.482;2023-10-09T02:13:01;14.40;44.20
16532;DHT22;66872;63.142;14.482;2023-10-09T02:15:39;14.40;43.60
16532;DHT22;66872;63.142;14.482;2023-10-09T02:18:09;14.50;43.60
16532;DHT22;66872;63.142;14.482;2023-10-09T02:20:48;14.50;43.60
16532;DHT22;66872;63.142;14.482;2023-10-09T02:23:33;14.50;43.60
16532;DHT22;66872;63.142;14.482;2023-10-09T02:26:06;14.50;43.60
16532;DHT22;66872;63.142;14.482;2023-10-09T02:28:33;14.50;43.60
16532;DHT22;66872;63.142;14.482;2023-10-09T02:31:00;14.50;43.60
16532;DHT22;66872;63.142;14.482;2023-10-09T02:33:28;14.50;43.60
16532;DHT22;66872;63.142;14.482;2023-10-09T02:35:54;14.50;43.60
16532;DHT22;66872;63.142;14.482;2023-10-09T02:38:20;14.50;43.60
16532;DHT22;66872;63.142;14.482;2023-10-09T02:40:52;14.40;43.50
16532;DHT22;66872;63.142;14.482;2023-10-09T02:43:31;14.40;43.60
16532;DHT22;66872;63.142;14.482;2023-10-09T02:46:11;14.40;43.60
16532;DHT22;66872;63.142;14.482;2023-10-09T02:51:22;14.40;43.60
16532;DHT22;66872;63.142;14.482;2023-10-09T02:54:12;14.50;43.70
16532;DHT22;66872;63.142;14.482;2023-10-09T02:56:51;14.50;43.70
16532;DHT22;66872;63.142;14.482;2023-10-09T02:59:33;14.40;43.70
16532;DHT22;66872;63.142;14.482;2023-10-09T03:01:59;14.40;43.70
16532;DHT22;66872;63.142;14.482;2023-10-09T03:04:26;14.40;43.70
16532;DHT22;66872;63.142;14.482;2023-10-09T03:07:02;14.40;43.70
16532;DHT22;66872;63.142;14.482;2023-10-09T03:09:29;14.40;43.70
16532;DHT22;66872;63.142;14.482;2023-10-09T03:12:01;14.40;43.70
16532;DHT22;66872;63.142;14.482;2023-10-09T03:14:35;14.40;43.70
16532;DHT22;66872;63.142;14.482;2023-10-09T03:17:04;14.40;43.70
16532;DHT22;66872;63.142;14.482;2023-10-09T03:19:31;14.40;43.70
16532;DHT22;66872;63.142;14.482;2023-10-09T03:22:03;14.50;43.70
16532;DHT22;66872;63.142;14.482;2023-10-09T03:24:29;14.50;43.70
16532;DHT22;66872;63.142;14.482;2023-10-09T03:26:56;14.50;43.70
16532;DHT22;66872;63.142;14.482;2023-10-09T03:29:23;14.50;43.70
16532;DHT22;66872;63.142;14.482;2023-10-09T03:31:49;14.50;43.70
16532;DHT22;66872;63.142;14.482;2023-10-09T03:34:17;14.40;43.60
16532;DHT22;66872;63.142;14.482;2023-10-09T03:36:46;14.40;43.60
16532;DHT22;66872;63.142;14.482;2023-10-09T03:39:13;14.50;43.70
16532;DHT22;66872;63.142;14.482;2023-10-09T03:41:57;14.40;43.60
16532;DHT22;66872;63.142;14.482;2023-10-09T03:44:31;14.50;43.70
16532;DHT22;66872;63.142;14.482;2023-10-09T03:46:59;14.40;43.60
16532;DHT22;66872;63.142;14.482;2023-10-09T03:49:25;14.40;43.70
16532;DHT22;66872;63.142;14.482;2023-10-09T03:51:52;14.40;43.70
16532;DHT22;66872;63.142;14.482;2023-10-09T03:54:18;14.40;43.70
16532;DHT22;66872;63.142;14.482;2023-10-09T03:56:48;14.40;43.70
16532;DHT22;66872;63.142;14.482;2023-10-09T03:59:20;14.40;43.70
16532;DHT22;66872;63.142;14.482;2023-10-09T04:01:47;14.50;43.80
16532;DHT22;66872;63.142;14.482;2023-10-09T04:04:14;14.50;43.80
16532;DHT22;66872;63.142;14.482;2023-10-09T04:06:40;14.40;43.70
16532;DHT22;66872;63.142;14.482;2023-10-09T04:09:07;14.40;43.80
16532;DHT22;66872;63.142;14.482;2023-10-09T04:14:23;14.40;43.80
16532;DHT22;66872;63.142;14.482;2023-10-09T04:16:58;14.40;43.80
16532;DHT22;66872;63.142;14.482;2023-10-09T04:19:53;14.40;43.90
16532;DHT22;66872;63.142;14.482;2023-10-09T04:22:38;14.40;43.90
16532;DHT22;66872;63.142;14.482;2023-10-09T04:25:19;14.40;44.50
16532;DHT22;66872;63.142;14.482;2023-10-09T04:28:00;14.40;44.00
16532;DHT22;66872;63.142;14.482;2023-10-09T04:30:39;14.40;44.00
16532;DHT22;66872;63.142;14.482;2023-10-09T04:33:15;14.40;43.90
16532;DHT22;66872;63.142;14.482;2023-10-09T04:36:05;14.40;44.00
16532;DHT22;66872;63.142;14.482;2023-10-09T04:38:42;14.40;44.10
16532;DHT22;66872;63.142;14.482;2023-10-09T04:41:26;14.40;44.00
16532;DHT22;66872;63.142;14.482;2023-10-09T04:44:00;14.40;44.10
16532;DHT22;66872;63.142;14.482;2023-10-09T04:46:48;14.40;44.00
16532;DHT22;66872;63.142;14.482;2023-10-09T04:49:34;14.40;44.00
16532;DHT22;66872;63.142;14.482;2023-10-09T04:52:20;14.40;44.00
16532;DHT22;66872;63.142;14.482;2023-10-09T04:54:55;14.40;44.00
16532;DHT22;66872;63.142;14.482;2023-10-09T04:57:39;14.40;44.00
16532;DHT22;66872;63.142;14.482;2023-10-09T05:02:53;14.40;44.00
16532;DHT22;66872;63.142;14.482;2023-10-09T05:05:26;14.40;44.10
16532;DHT22;66872;63.142;14.482;2023-10-09T05:07:58;14.40;44.10
16532;DHT22;66872;63.142;14.482;2023-10-09T05:10:35;14.40;44.10
16532;DHT22;66872;63.142;14.482;2023-10-09T05:13:19;14.40;44.10
16532;DHT22;66872;63.142;14.482;2023-10-09T05:16:15;14.40;44.00
16532;DHT22;66872;63.142;14.482;2023-10-09T05:18:48;14.40;44.00
16532;DHT22;66872;63.142;14.482;2023-10-09T05:21:27;14.40;44.10
16532;DHT22;66872;63.142;14.482;2023-10-09T05:24:00;14.40;44.00
16532;DHT22;66872;63.142;14.482;2023-10-09T05:26:55;14.40;44.10
16532;DHT22;66872;63.142;14.482;2023-10-09T05:29:41;14.40;44.10
16532;DHT22;66872;63.142;14.482;2023-10-09T05:32:25;14.40;44.10
16532;DHT22;66872;63.142;14.482;2023-10-09T05:35:00;14.40;44.20
16532;DHT22;66872;63.142;14.482;2023-10-09T05:37:30;14.40;44.20
16532;DHT22;66872;63.142;14.482;2023-10-09T05:40:01;14.40;44.20
16532;DHT22;66872;63.142;14.482;2023-10-09T05:42:34;14.40;44.10
16532;DHT22;66872;63.142;14.482;2023-10-09T05:45:06;14.40;44.10
16532;DHT22;66872;63.142;14.482;2023-10-09T05:47:48;14.40;44.10
16532;DHT22;66872;63.142;14.482;2023-10-09T05:50:26;14.40;44.20
16532;DHT22;66872;63.142;14.482;2023-10-09T05:52:53;14.40;44.20
16532;DHT22;66872;63.142;14.482;2023-10-09T05:55:24;14.40;44.10
16532;DHT22;66872;63.142;14.482;2023-10-09T05:57:50;14.40;44.10
16532;DHT22;66872;63.142;14.482;2023-10-09T06:00:28;14.40;44.10
16532;DHT22;66872;63.142;14.482;2023-10-09T06:03:13;14.40;44.10
16532;DHT22;66872;63.142;14.482;2023-10-09T06:05:48;14.40;44.10
16532;DHT22;66872;63.142;14.482;2023-10-09T06:08:24;14.40;44.10
16532;DHT22;66872;63.142;14.482;2023-10-09T06:11:04;14.50;44.10
16532;DHT22;66872;63.142;14.482;2023-10-09T06:13:53;14.40;44.10
16532;DHT22;66872;63.142;14.482;2023-10-09T06:16:43;14.40;44.10
16532;DHT22;66872;63.142;14.482;2023-10-09T06:19:25;14.40;44.20
16532;DHT22;66872;63.142;14.482;2023-10-09T06:21:56;14.40;44.10
16532;DHT22;66872;63.142;14.482;2023-10-09T06:24:37;14.40;44.20
16532;DHT22;66872;63.142;14.482;2023-10-09T06:27:19;14.40;44.20
16532;DHT22;66872;63.142;14.482;2023-10-09T06:30:05;14.40;44.20
16532;DHT22;66872;63.142;14.482;2023-10-09T06:32:43;14.40;44.10
16532;DHT22;66872;63.142;14.482;2023-10-09T06:35:34;14.40;44.10
16532;DHT22;66872;63.142;14.482;2023-10-09T06:38:01;14.40;44.10
16532;DHT22;66872;63.142;14.482;2023-10-09T06:40:39;14.40;44.10
16532;DHT22;66872;63.142;14.482;2023-10-09T06:43:18;14.40;44.20
16532;DHT22;66872;63.142;14.482;2023-10-09T06:45:50;14.40;44.20
16532;DHT22;66872;63.142;14.482;2023-10-09T06:48:34;14.40;44.10
16532;DHT22;66872;63.142;14.482;2023-10-09T06:53:47;14.50;44.10
16532;DHT22;66872;63.142;14.482;2023-10-09T06:56:37;14.50;44.10
16532;DHT22;66872;63.142;14.482;2023-10-09T06:59:06;14.50;44.10
16532;DHT22;66872;63.142;14.482;2023-10-09T07:01:41;14.50;44.10
16532;DHT22;66872;63.142;14.482;2023-10-09T07:04:13;14.50;44.00
16532;DHT22;66872;63.142;14.482;2023-10-09T07:06:48;14.60;44.00
16532;DHT22;66872;63.142;14.482;2023-10-09T07:09:15;14.60;43.90
16532;DHT22;66872;63.142;14.482;2023-10-09T07:11:41;14.60;43.90
16532;DHT22;66872;63.142;14.482;2023-10-09T07:17:02;14.60;43.80
16532;DHT22;66872;63.142;14.482;2023-10-09T07:19:46;14.60;43.80
16532;DHT22;66872;63.142;14.482;2023-10-09T07:22:12;14.60;43.80
16532;DHT22;66872;63.142;14.482;2023-10-09T07:24:54;14.70;43.90
16532;DHT22;66872;63.142;14.482;2023-10-09T07:27:28;14.70;43.80
16532;DHT22;66872;63.142;14.482;2023-10-09T07:30:11;14.70;43.70
16532;DHT22;66872;63.142;14.482;2023-10-09T07:32:57;14.70;43.70
16532;DHT22;66872;63.142;14.482;2023-10-09T07:35:39;14.80;43.70
16532;DHT22;66872;63.142;14.482;2023-10-09T07:38:21;14.80;43.60
16532;DHT22;66872;63.142;14.482;2023-10-09T07:40:55;14.80;43.60
16532;DHT22;66872;63.142;14.482;2023-10-09T07:43:26;14.80;43.50
16532;DHT22;66872;63.142;14.482;2023-10-09T07:45:54;14.80;43.50
16532;DHT22;66872;63.142;14.482;2023-10-09T07:48:24;14.90;43.50
16532;DHT22;66872;63.142;14.482;2023-10-09T07:51:11;14.90;43.40
16532;DHT22;66872;63.142;14.482;2023-10-09T07:53:36;14.90;43.30
16532;DHT22;66872;63.142;14.482;2023-10-09T07:56:10;15.00;43.30
16532;DHT22;66872;63.142;14.482;2023-10-09T07:58:39;15.00;43.20
16532;DHT22;66872;63.142;14.482;2023-10-09T08:01:12;15.10;43.10
16532;DHT22;66872;63.142;14.482;2023-10-09T08:03:56;15.10;43.00
16532;DHT22;66872;63.142;14.482;2023-10-09T08:06:32;15.20;42.90
16532;DHT22;66872;63.142;14.482;2023-10-09T08:09:05;15.20;42.80
16532;DHT22;66872;63.142;14.482;2023-10-09T08:11:47;15.30;42.70
16532;DHT22;66872;63.142;14.482;2023-10-09T08:14:31;15.30;42.60
16532;DHT22;66872;63.142;14.482;2023-10-09T08:16:59;15.40;42.50
16532;DHT22;66872;63.142;14.482;2023-10-09T08:19:42;15.40;42.40
16532;DHT22;66872;63.142;14.482;2023-10-09T08:22:24;15.50;42.30
16532;DHT22;66872;63.142;14.482;2023-10-09T08:24:50;15.50;42.20
16532;DHT22;66872;63.142;14.482;2023-10-09T08:27:22;15.60;42.20
16532;DHT22;66872;63.142;14.482;2023-10-09T08:30:12;15.60;42.10
16532;DHT22;66872;63.142;14.482;2023-10-09T08:32:47;15.60;42.00
16532;DHT22;66872;63.142;14.482;2023-10-09T08:35:33;15.60;42.00
16532;DHT22;66872;63.142;14.482;2023-10-09T08:38:01;15.60;42.00
16532;DHT22;66872;63.142;14.482;2023-10-09T08:40:36;15.60;41.90
16532;DHT22;66872;63.142;14.482;2023-10-09T08:43:10;15.60;41.90
16532;DHT22;66872;63.142;14.482;2023-10-09T08:45:45;15.60;41.90
16532;DHT22;66872;63.142;14.482;2023-10-09T08:48:12;15.60;41.90
16532;DHT22;66872;63.142;14.482;2023-10-09T08:50:42;15.60;41.90
16532;DHT22;66872;63.142;14.482;2023-10-09T08:53:11;15.60;41.90
16532;DHT22;66872;63.142;14.482;2023-10-09T08:55:38;15.60;41.80
16532;DHT22;66872;63.142;14.482;2023-10-09T08:58:05;15.60;41.80
16532;DHT22;66872;63.142;14.482;2023-10-09T09:00:49;15.60;41.90
16532;DHT22;66872;63.142;14.482;2023-10-09T09:03:16;15.60;41.80
16532;DHT22;66872;63.142;14.482;2023-10-09T09:05:56;15.70;41.90
16532;DHT22;66872;63.142;14.482;2023-10-09T09:08:26;15.70;41.90
16532;DHT22;66872;63.142;14.482;2023-10-09T09:11:03;15.70;41.80
16532;DHT22;66872;63.142;14.482;2023-10-09T09:16:28;15.70;41.80
16532;DHT22;66872;63.142;14.482;2023-10-09T09:19:04;15.70;41.80
16532;DHT22;66872;63.142;14.482;2023-10-09T09:21:56;15.70;41.80
16532;DHT22;66872;63.142;14.482;2023-10-09T09:24:24;15.70;41.80
16532;DHT22;66872;63.142;14.482;2023-10-09T09:26:56;15.70;41.80
16532;DHT22;66872;63.142;14.482;2023-10-09T09:32:03;15.70;41.80
16532;DHT22;66872;63.142;14.482;2023-10-09T09:34:51;15.70;41.80
16532;DHT22;66872;63.142;14.482;2023-10-09T09:37:21;15.70;41.80
16532;DHT22;66872;63.142;14.482;2023-10-09T09:39:47;15.70;41.80
16532;DHT22;66872;63.142;14.482;2023-10-09T09:42:17;15.70;41.80
16532;DHT22;66872;63.142;14.482;2023-10-09T09:44:51;15.70;42.40
16532;DHT22;66872;63.142;14.482;2023-10-09T09:47:17;15.70;41.80
16532;DHT22;66872;63.142;14.482;2023-10-09T09:49:51;15.70;41.80
16532;DHT22;66872;63.142;14.482;2023-10-09T09:52:26;15.70;41.80
16532;DHT22;66872;63.142;14.482;2023-10-09T09:54:53;15.70;41.80
16532;DHT22;66872;63.142;14.482;2023-10-09T09:57:21;15.70;41.80
16532;DHT22;66872;63.142;14.482;2023-10-09T09:59:52;15.80;41.80
16532;DHT22;66872;63.142;14.482;2023-10-09T10:02:28;15.80;41.70
16532;DHT22;66872;63.142;14.482;2023-10-09T10:05:00;15.80;41.70
16532;DHT22;66872;63.142;14.482;2023-10-09T10:07:31;15.80;41.60
16532;DHT22;66872;63.142;14.482;2023-10-09T10:12:58;15.80;41.60
16532;DHT22;66872;63.142;14.482;2023-10-09T10:18:25;15.80;41.50
16532;DHT22;66872;63.142;14.482;2023-10-09T10:21:11;15.90;41.60
16532;DHT22;66872;63.142;14.482;2023-10-09T10:23:44;15.90;41.50
16532;DHT22;66872;63.142;14.482;2023-10-09T10:26:19;15.90;41.50
16532;DHT22;66872;63.142;14.482;2023-10-09T10:29:20;15.90;41.50
16532;DHT22;66872;63.142;14.482;2023-10-09T10:34:17;15.90;41.50
16532;DHT22;66872;63.142;14.482;2023-10-09T10:36:49;15.90;41.50
16532;DHT22;66872;63.142;14.482;2023-10-09T10:39:18;15.90;41.50
16532;DHT22;66872;63.142;14.482;2023-10-09T10:41:57;15.90;41.60
16532;DHT22;66872;63.142;14.482;2023-10-09T10:44:31;15.80;41.50
16532;DHT22;66872;63.142;14.482;2023-10-09T10:47:08;15.90;41.60
16532;DHT22;66872;63.142;14.482;2023-10-09T10:49:54;15.80;41.60
16532;DHT22;66872;63.142;14.482;2023-10-09T10:52:46;15.80;41.60
16532;DHT22;66872;63.142;14.482;2023-10-09T10:55:23;15.80;41.60
16532;DHT22;66872;63.142;14.482;2023-10-09T10:58:01;15.80;41.60
16532;DHT22;66872;63.142;14.482;2023-10-09T11:00:32;15.80;41.70
16532;DHT22;66872;63.142;14.482;2023-10-09T11:03:20;15.80;41.70
16532;DHT22;66872;63.142;14.482;2023-10-09T11:06:01;15.80;41.70
16532;DHT22;66872;63.142;14.482;2023-10-09T11:08:44;15.80;41.80
16532;DHT22;66872;63.142;14.482;2023-10-09T11:11:20;15.80;41.90
16532;DHT22;66872;63.142;14.482;2023-10-09T11:13:46;15.70;41.80
16532;DHT22;66872;63.142;14.482;2023-10-09T11:16:23;15.70;41.80
16532;DHT22;66872;63.142;14.482;2023-10-09T11:19:18;15.70;41.80
16532;DHT22;66872;63.142;14.482;2023-10-09T11:22:10;15.70;41.80
16532;DHT22;66872;63.142;14.482;2023-10-09T11:24:36;15.70;41.80
16532;DHT22;66872;63.142;14.482;2023-10-09T11:27:03;15.70;41.80
16532;DHT22;66872;63.142;14.482;2023-10-09T11:29:33;15.70;41.80
16532;DHT22;66872;63.142;14.482;2023-10-09T11:32:09;15.70;41.90
16532;DHT22;66872;63.142;14.482;2023-10-09T11:34:50;15.70;41.90
16532;DHT22;66872;63.142;14.482;2023-10-09T11:37:23;15.70;41.90
16532;DHT22;66872;63.142;14.482;2023-10-09T11:40:04;15.70;42.00
16532;DHT22;66872;63.142;14.482;2023-10-09T11:42:49;15.70;42.00
16532;DHT22;66872;63.142;14.482;2023-10-09T11:45:23;15.70;42.00
16532;DHT22;66872;63.142;14.482;2023-10-09T11:47:52;15.70;42.10
16532;DHT22;66872;63.142;14.482;2023-10-09T11:53:10;15.60;42.00
16532;DHT22;66872;63.142;14.482;2023-10-09T11:55:59;15.60;42.00
16532;DHT22;66872;63.142;14.482;2023-10-09T11:58:25;15.70;42.10
16532;DHT22;66872;63.142;14.482;2023-10-09T12:00:56;15.60;42.00
16532;DHT22;66872;63.142;14.482;2023-10-09T12:03:26;15.70;42.10
16532;DHT22;66872;63.142;14.482;2023-10-09T12:06:04;15.70;42.10
16532;DHT22;66872;63.142;14.482;2023-10-09T12:08:34;15.70;42.10
16532;DHT22;66872;63.142;14.482;2023-10-09T12:11:01;15.70;42.00
16532;DHT22;66872;63.142;14.482;2023-10-09T12:13:33;15.70;42.10
16532;DHT22;66872;63.142;14.482;2023-10-09T12:15:59;15.70;42.60
16532;DHT22;66872;63.142;14.482;2023-10-09T12:18:25;15.70;42.00
16532;DHT22;66872;63.142;14.482;2023-10-09T12:20:51;15.70;42.00
16532;DHT22;66872;63.142;14.482;2023-10-09T12:23:21;15.70;42.10
16532;DHT22;66872;63.142;14.482;2023-10-09T12:25:50;15.70;42.10
16532;DHT22;66872;63.142;14.482;2023-10-09T12:28:17;15.70;42.20
16532;DHT22;66872;63.142;14.482;2023-10-09T12:30:46;15.70;42.20
16532;DHT22;66872;63.142;14.482;2023-10-09T12:33:19;15.70;42.20
16532;DHT22;66872;63.142;14.482;2023-10-09T12:35:45;15.70;42.20
16532;DHT22;66872;63.142;14.482;2023-10-09T12:38:13;15.60;42.20
16532;DHT22;66872;63.142;14.482;2023-10-09T12:40:44;15.70;42.30
16532;DHT22;66872;63.142;14.482;2023-10-09T12:43:19;15.60;42.20
16532;DHT22;66872;63.142;14.482;2023-10-09T12:45:48;15.70;42.30
16532;DHT22;66872;63.142;14.482;2023-10-09T12:48:14;15.70;42.30
16532;DHT22;66872;63.142;14.482;2023-10-09T12:50:40;15.70;42.20
16532;DHT22;66872;63.142;14.482;2023-10-09T12:53:10;15.70;42.20
16532;DHT22;66872;63.142;14.482;2023-10-09T12:55:39;15.70;42.20
16532;DHT22;66872;63.142;14.482;2023-10-09T12:58:06;15.70;42.20
16532;DHT22;66872;63.142;14.482;2023-10-09T13:00:37;15.70;42.20
16532;DHT22;66872;63.142;14.482;2023-10-09T13:03:06;15.70;42.20
16532;DHT22;66872;63.142;14.482;2023-10-09T13:05:49;15.70;42.20
16532;DHT22;66872;63.142;14.482;2023-10-09T13:08:26;15.70;42.30
16532;DHT22;66872;63.142;14.482;2023-10-09T13:11:05;15.60;42.20
16532;DHT22;66872;63.142;14.482;2023-10-09T13:13:37;15.60;42.30
16532;DHT22;66872;63.142;14.482;2023-10-09T13:16:10;15.60;42.40
16532;DHT22;66872;63.142;14.482;2023-10-09T13:18:41;15.60;42.40
16532;DHT22;66872;63.142;14.482;2023-10-09T13:21:27;15.50;42.40
16532;DHT22;66872;63.142;14.482;2023-10-09T13:23:57;15.50;42.50
16532;DHT22;66872;63.142;14.482;2023-10-09T13:26:25;15.50;42.50
16532;DHT22;66872;63.142;14.482;2023-10-09T13:28:56;15.50;42.50
16532;DHT22;66872;63.142;14.482;2023-10-09T13:31:23;15.50;42.60
16532;DHT22;66872;63.142;14.482;2023-10-09T13:33:52;15.50;42.60
16532;DHT22;66872;63.142;14.482;2023-10-09T13:36:21;15.40;42.60
16532;DHT22;66872;63.142;14.482;2023-10-09T13:38:53;15.50;42.70
16532;DHT22;66872;63.142;14.482;2023-10-09T13:41:20;15.40;42.70
16532;DHT22;66872;63.142;14.482;2023-10-09T13:43:45;15.50;42.80
16532;DHT22;66872;63.142;14.482;2023-10-09T13:46:12;15.40;42.80
16532;DHT22;66872;63.142;14.482;2023-10-09T13:48:40;15.40;42.70
16532;DHT22;66872;63.142;14.482;2023-10-09T13:51:10;15.40;42.80
16532;DHT22;66872;63.142;14.482;2023-10-09T13:53:49;15.40;42.80
16532;DHT22;66872;63.142;14.482;2023-10-09T13:56:19;15.40;42.90
16532;DHT22;66872;63.142;14.482;2023-10-09T13:58:50;15.40;42.80
16532;DHT22;66872;63.142;14.482;2023-10-09T14:01:17;15.40;42.90
16532;DHT22;66872;63.142;14.482;2023-10-09T14:03:53;15.40;42.90
16532;DHT22;66872;63.142;14.482;2023-10-09T14:06:19;15.40;43.00
16532;DHT22;66872;63.142;14.482;2023-10-09T14:08:56;15.40;43.00
16532;DHT22;66872;63.142;14.482;2023-10-09T14:11:22;15.40;43.00
16532;DHT22;66872;63.142;14.482;2023-10-09T14:13:47;15.40;43.10
16532;DHT22;66872;63.142;14.482;2023-10-09T14:16:13;15.30;43.00
16532;DHT22;66872;63.142;14.482;2023-10-09T14:18:55;15.30;43.00
16532;DHT22;66872;63.142;14.482;2023-10-09T14:21:27;15.30;43.00
16532;DHT22;66872;63.142;14.482;2023-10-09T14:23:56;15.30;43.10
16532;DHT22;66872;63.142;14.482;2023-10-09T14:26:28;15.30;43.10
16532;DHT22;66872;63.142;14.482;2023-10-09T14:28:55;15.30;43.10
16532;DHT22;66872;63.142;14.482;2023-10-09T14:31:25;15.30;43.20
16532;DHT22;66872;63.142;14.482;2023-10-09T14:33:57;15.30;43.20
16532;DHT22;66872;63.142;14.482;2023-10-09T14:36:24;15.30;43.20
16532;DHT22;66872;63.142;14.482;2023-10-09T14:38:51;15.30;43.20
16532;DHT22;66872;63.142;14.482;2023-10-09T14:41:21;15.30;43.20
16532;DHT22;66872;63.142;14.482;2023-10-09T14:43:50;15.30;43.30
16532;DHT22;66872;63.142;14.482;2023-10-09T14:46:16;15.30;43.30
16532;DHT22;66872;63.142;14.482;2023-10-09T14:48:46;15.30;43.30
16532;DHT22;66872;63.142;14.482;2023-10-09T14:51:12;15.20;43.90
16532;DHT22;66872;63.142;14.482;2023-10-09T14:53:39;15.20;43.30
16532;DHT22;66872;63.142;14.482;2023-10-09T14:56:05;15.20;43.40
16532;DHT22;66872;63.142;14.482;2023-10-09T14:58:35;15.20;43.40
16532;DHT22;66872;63.142;14.482;2023-10-09T15:01:12;15.20;43.40
16532;DHT22;66872;63.142;14.482;2023-10-09T15:03:40;15.20;43.40
16532;DHT22;66872;63.142;14.482;2023-10-09T15:06:07;15.20;43.50
16532;DHT22;66872;63.142;14.482;2023-10-09T15:08:36;15.20;43.50
16532;DHT22;66872;63.142;14.482;2023-10-09T15:11:02;15.20;43.50
16532;DHT22;66872;63.142;14.482;2023-10-09T15:13:27;15.20;43.50
16532;DHT22;66872;63.142;14.482;2023-10-09T15:15:54;15.20;43.50
16532;DHT22;66872;63.142;14.482;2023-10-09T15:18:21;15.20;43.60
16532;DHT22;66872;63.142;14.482;2023-10-09T15:20:50;15.20;43.60
16532;DHT22;66872;63.142;14.482;2023-10-09T15:23:17;15.10;43.60
16532;DHT22;66872;63.142;14.482;2023-10-09T15:25:45;15.10;43.60
16532;DHT22;66872;63.142;14.482;2023-10-09T15:28:15;15.10;43.60
16532;DHT22;66872;63.142;14.482;2023-10-09T15:30:41;15.10;43.70
16532;DHT22;66872;63.142;14.482;2023-10-09T15:33:10;15.10;43.70
16532;DHT22;66872;63.142;14.482;2023-10-09T15:35:36;15.10;43.70
16532;DHT22;66872;63.142;14.482;2023-10-09T15:38:03;15.10;43.80
16532;DHT22;66872;63.142;14.482;2023-10-09T15:40:33;15.10;43.80
16532;DHT22;66872;63.142;14.482;2023-10-09T15:43:03;15.10;43.80
16532;DHT22;66872;63.142;14.482;2023-10-09T15:45:30;15.10;43.80
16532;DHT22;66872;63.142;14.482;2023-10-09T15:47:57;15.10;43.90
16532;DHT22;66872;63.142;14.482;2023-10-09T15:50:25;15.10;43.80
16532;DHT22;66872;63.142;14.482;2023-10-09T15:52:54;15.10;43.90
16532;DHT22;66872;63.142;14.482;2023-10-09T15:55:21;15.00;43.80
16532;DHT22;66872;63.142;14.482;2023-10-09T15:57:50;15.00;43.80
16532;DHT22;66872;63.142;14.482;2023-10-09T16:00:21;15.00;43.80
16532;DHT22;66872;63.142;14.482;2023-10-09T16:02:48;15.00;43.80
16532;DHT22;66872;63.142;14.482;2023-10-09T16:05:14;15.00;44.50
16532;DHT22;66872;63.142;14.482;2023-10-09T16:07:42;15.00;43.90
16532;DHT22;66872;63.142;14.482;2023-10-09T16:10:09;15.00;44.00
16532;DHT22;66872;63.142;14.482;2023-10-09T16:12:37;15.00;44.00
16532;DHT22;66872;63.142;14.482;2023-10-09T16:15:04;15.00;44.00
16532;DHT22;66872;63.142;14.482;2023-10-09T16:17:34;15.00;44.00
16532;DHT22;66872;63.142;14.482;2023-10-09T16:20:00;15.00;44.00
16532;DHT22;66872;63.142;14.482;2023-10-09T16:22:27;15.00;44.10
16532;DHT22;66872;63.142;14.482;2023-10-09T16:24:59;15.00;44.10